モントリオール/トルドー の空港の天気 - METARとTAF

モントリオール・ピエール・エリオット・トルドー国際空港 ( CYUL / YUL ) - カナダ ケベック州モントリオール
飛行場実況気象(Metar)
観測時間05/24 20:00 EDT (05/25 00:00 UTC)
風向・風速東南東 4m/s
視程10km以上
天気現象
少しの雲 雲底高度 5490m
全天を覆う雲 雲底高度 7620m
気温24℃
湿度31%
気圧1017.8hPa
METARCYUL 250000Z 12008KT 30SM FEW180 OVC250 24/06 A3005 RMK AC2CS6 CI ASOCTD SLP178 DENSITY ALT 1100FT
過去の天気等 Google飛行場航空写真 Wunderground天気予報

過去48時間のMETAR

飛行場予報(TAF)
発表時間: 5/24 19:38 EDT (5/24 23:38 UTC)
予報対象時間: 24日20時 EDT ~ 25日20時 EDT
風向・風速南東 5m/s
視程10km以上
全天の4割程度の雲 雲底高度 3050m
全天の8割程度の雲 雲底高度 6100m
24日20時 EDT ~ 24日22時 EDT に一時的に
全天の8割程度の雲 雲底高度 3050m
25日6時 EDT から
風向・風速南南東 5m/s
視程10km以上
全天の8割程度の雲 雲底高度 1520m
25日9時 EDT から
風向・風速南南東 5m/s
視程10km以上
全天を覆う雲 雲底高度 1220m
25日9時 EDT ~ 25日18時 EDT に一時的に
視程8050m
天気現象弱いしゅう雨 もや
全天の8割程度の雲 雲底高度 610m
25日18時 EDT から
風向・風速南 3m/s
視程10km以上
全天の4割程度の雲 雲底高度 910m
TAF CYUL 242338Z 2500/2524 13010KT P6SM SCT100 BKN200
TEMPO 2500/2502 BKN100
FM251000 16010KT P6SM BKN050
FM251300 16010KT P6SM OVC040
TEMPO 2513/2522 5SM -SHRA BR BKN020
FM252200 18006KT P6SM SCT030 RMK NXT FCST BY 250300Z